sensor_id;sensor_type;location;lat;lon;timestamp;pressure;altitude;pressure_sealevel;temperature;humidity
47983;BME280;33751;50.816;-1.214;2022-07-29T00:01:32;101774.84;;;16.75;100.00
47983;BME280;33751;50.816;-1.214;2022-07-29T00:03:59;101774.75;;;16.67;100.00
47983;BME280;33751;50.816;-1.214;2022-07-29T00:06:26;101773.60;;;16.42;100.00
47983;BME280;33751;50.816;-1.214;2022-07-29T00:08:53;101773.40;;;16.40;100.00
47983;BME280;33751;50.816;-1.214;2022-07-29T00:11:20;101774.34;;;16.30;100.00
47983;BME280;33751;50.816;-1.214;2022-07-29T00:13:47;101776.24;;;16.54;100.00
47983;BME280;33751;50.816;-1.214;2022-07-29T00:16:14;101779.48;;;16.15;100.00
47983;BME280;33751;50.816;-1.214;2022-07-29T00:18:41;101778.25;;;16.24;100.00
47983;BME280;33751;50.816;-1.214;2022-07-29T00:21:07;101772.68;;;16.18;100.00
47983;BME280;33751;50.816;-1.214;2022-07-29T00:23:34;101770.30;;;16.29;100.00
47983;BME280;33751;50.816;-1.214;2022-07-29T00:26:02;101769.95;;;16.11;100.00
47983;BME280;33751;50.816;-1.214;2022-07-29T00:28:28;101768.76;;;16.14;100.00
47983;BME280;33751;50.816;-1.214;2022-07-29T00:30:55;101767.82;;;15.66;100.00
47983;BME280;33751;50.816;-1.214;2022-07-29T00:33:23;101766.61;;;16.24;100.00
47983;BME280;33751;50.816;-1.214;2022-07-29T00:35:49;101765.49;;;16.45;100.00
47983;BME280;33751;50.816;-1.214;2022-07-29T00:38:18;101763.85;;;16.25;100.00
47983;BME280;33751;50.816;-1.214;2022-07-29T00:40:46;101764.36;;;16.04;100.00
47983;BME280;33751;50.816;-1.214;2022-07-29T00:43:14;101764.63;;;16.02;100.00
47983;BME280;33751;50.816;-1.214;2022-07-29T00:45:41;101762.45;;;16.36;100.00
47983;BME280;33751;50.816;-1.214;2022-07-29T00:48:08;101763.71;;;16.27;100.00
47983;BME280;33751;50.816;-1.214;2022-07-29T00:50:35;101761.39;;;16.30;100.00
47983;BME280;33751;50.816;-1.214;2022-07-29T00:53:03;101760.55;;;16.49;100.00
47983;BME280;33751;50.816;-1.214;2022-07-29T00:55:30;101758.08;;;16.35;100.00
47983;BME280;33751;50.816;-1.214;2022-07-29T00:57:58;101757.77;;;16.41;100.00
47983;BME280;33751;50.816;-1.214;2022-07-29T01:00:27;101758.77;;;16.44;100.00
47983;BME280;33751;50.816;-1.214;2022-07-29T01:02:55;101753.61;;;16.15;100.00
47983;BME280;33751;50.816;-1.214;2022-07-29T01:05:24;101749.47;;;16.33;100.00
47983;BME280;33751;50.816;-1.214;2022-07-29T01:07:53;101748.22;;;16.44;100.00
47983;BME280;33751;50.816;-1.214;2022-07-29T01:10:21;101741.25;;;16.04;100.00
47983;BME280;33751;50.816;-1.214;2022-07-29T01:12:50;101741.96;;;16.08;100.00
47983;BME280;33751;50.816;-1.214;2022-07-29T01:15:18;101742.69;;;16.07;100.00
47983;BME280;33751;50.816;-1.214;2022-07-29T01:17:50;101744.29;;;16.06;100.00
47983;BME280;33751;50.816;-1.214;2022-07-29T01:20:25;101739.15;;;15.91;100.00
47983;BME280;33751;50.816;-1.214;2022-07-29T01:23:07;101740.30;;;16.24;100.00
47983;BME280;33751;50.816;-1.214;2022-07-29T01:25:54;101738.86;;;15.88;100.00
47983;BME280;33751;50.816;-1.214;2022-07-29T01:28:39;101738.46;;;16.06;100.00
47983;BME280;33751;50.816;-1.214;2022-07-29T01:31:16;101733.86;;;15.97;100.00
47983;BME280;33751;50.816;-1.214;2022-07-29T01:33:50;101734.88;;;15.75;100.00
47983;BME280;33751;50.816;-1.214;2022-07-29T01:36:23;101732.39;;;15.70;100.00
47983;BME280;33751;50.816;-1.214;2022-07-29T01:38:54;101733.92;;;15.80;100.00
47983;BME280;33751;50.816;-1.214;2022-07-29T01:41:25;101734.12;;;15.64;100.00
47983;BME280;33751;50.816;-1.214;2022-07-29T01:43:57;101734.47;;;15.78;100.00
47983;BME280;33751;50.816;-1.214;2022-07-29T01:46:29;101737.87;;;15.66;100.00
47983;BME280;33751;50.816;-1.214;2022-07-29T01:49:07;101744.45;;;15.83;100.00
47983;BME280;33751;50.816;-1.214;2022-07-29T01:51:42;101740.78;;;15.77;100.00
47983;BME280;33751;50.816;-1.214;2022-07-29T01:54:14;101741.14;;;15.50;100.00
47983;BME280;33751;50.816;-1.214;2022-07-29T01:56:43;101740.18;;;15.77;100.00
47983;BME280;33751;50.816;-1.214;2022-07-29T01:59:11;101739.79;;;15.45;100.00
47983;BME280;33751;50.816;-1.214;2022-07-29T02:01:40;101739.20;;;15.54;100.00
47983;BME280;33751;50.816;-1.214;2022-07-29T02:04:10;101739.95;;;15.90;100.00
47983;BME280;33751;50.816;-1.214;2022-07-29T02:06:38;101739.54;;;15.56;100.00
47983;BME280;33751;50.816;-1.214;2022-07-29T02:09:09;101741.41;;;15.45;100.00
47983;BME280;33751;50.816;-1.214;2022-07-29T02:11:38;101743.09;;;15.33;100.00
47983;BME280;33751;50.816;-1.214;2022-07-29T02:14:07;101741.41;;;15.49;100.00
47983;BME280;33751;50.816;-1.214;2022-07-29T02:16:36;101738.61;;;15.56;100.00
47983;BME280;33751;50.816;-1.214;2022-07-29T02:19:06;101737.55;;;15.72;100.00
47983;BME280;33751;50.816;-1.214;2022-07-29T02:21:33;101737.26;;;15.80;100.00
47983;BME280;33751;50.816;-1.214;2022-07-29T02:24:03;101737.49;;;15.70;100.00
47983;BME280;33751;50.816;-1.214;2022-07-29T02:26:32;101739.35;;;15.51;100.00
47983;BME280;33751;50.816;-1.214;2022-07-29T02:29:00;101739.41;;;15.61;100.00
47983;BME280;33751;50.816;-1.214;2022-07-29T02:31:33;101740.59;;;15.39;100.00
47983;BME280;33751;50.816;-1.214;2022-07-29T02:34:02;101748.60;;;15.29;100.00
47983;BME280;33751;50.816;-1.214;2022-07-29T02:36:30;101751.74;;;15.38;100.00
47983;BME280;33751;50.816;-1.214;2022-07-29T02:38:59;101754.18;;;15.44;100.00
47983;BME280;33751;50.816;-1.214;2022-07-29T02:41:30;101757.24;;;15.35;100.00
47983;BME280;33751;50.816;-1.214;2022-07-29T02:44:03;101762.57;;;15.55;100.00
47983;BME280;33751;50.816;-1.214;2022-07-29T02:46:34;101760.94;;;15.35;100.00
47983;BME280;33751;50.816;-1.214;2022-07-29T02:49:07;101758.77;;;15.49;100.00
47983;BME280;33751;50.816;-1.214;2022-07-29T02:51:41;101758.73;;;15.37;100.00
47983;BME280;33751;50.816;-1.214;2022-07-29T02:54:11;101755.51;;;15.60;100.00
47983;BME280;33751;50.816;-1.214;2022-07-29T02:56:44;101755.71;;;15.11;100.00
47983;BME280;33751;50.816;-1.214;2022-07-29T02:59:14;101755.30;;;15.38;100.00
47983;BME280;33751;50.816;-1.214;2022-07-29T03:01:45;101757.92;;;15.52;100.00
47983;BME280;33751;50.816;-1.214;2022-07-29T03:04:14;101757.39;;;15.11;100.00
47983;BME280;33751;50.816;-1.214;2022-07-29T03:06:43;101752.35;;;15.43;100.00
47983;BME280;33751;50.816;-1.214;2022-07-29T03:09:12;101752.21;;;15.31;100.00
47983;BME280;33751;50.816;-1.214;2022-07-29T03:11:40;101747.27;;;15.23;100.00
47983;BME280;33751;50.816;-1.214;2022-07-29T03:14:08;101749.36;;;15.47;100.00
47983;BME280;33751;50.816;-1.214;2022-07-29T03:16:36;101746.37;;;15.21;100.00
47983;BME280;33751;50.816;-1.214;2022-07-29T03:19:05;101743.19;;;15.59;100.00
47983;BME280;33751;50.816;-1.214;2022-07-29T03:21:33;101746.18;;;15.26;100.00
47983;BME280;33751;50.816;-1.214;2022-07-29T03:23:59;101745.98;;;14.98;100.00
47983;BME280;33751;50.816;-1.214;2022-07-29T03:26:27;101742.47;;;15.36;100.00
47983;BME280;33751;50.816;-1.214;2022-07-29T03:28:54;101742.59;;;15.47;100.00
47983;BME280;33751;50.816;-1.214;2022-07-29T03:31:22;101744.44;;;15.24;100.00
47983;BME280;33751;50.816;-1.214;2022-07-29T03:33:48;101747.93;;;15.44;100.00
47983;BME280;33751;50.816;-1.214;2022-07-29T03:36:15;101747.15;;;15.14;100.00
47983;BME280;33751;50.816;-1.214;2022-07-29T03:38:43;101747.43;;;15.23;100.00
47983;BME280;33751;50.816;-1.214;2022-07-29T03:41:13;101747.32;;;15.09;100.00
47983;BME280;33751;50.816;-1.214;2022-07-29T03:43:41;101747.42;;;15.11;100.00
47983;BME280;33751;50.816;-1.214;2022-07-29T03:46:10;101750.41;;;15.15;100.00
47983;BME280;33751;50.816;-1.214;2022-07-29T03:48:42;101752.40;;;14.85;100.00
47983;BME280;33751;50.816;-1.214;2022-07-29T03:51:13;101752.36;;;15.07;100.00
47983;BME280;33751;50.816;-1.214;2022-07-29T03:53:40;101753.07;;;14.77;100.00
47983;BME280;33751;50.816;-1.214;2022-07-29T03:56:08;101753.58;;;14.86;100.00
47983;BME280;33751;50.816;-1.214;2022-07-29T03:58:37;101753.26;;;15.06;100.00
47983;BME280;33751;50.816;-1.214;2022-07-29T04:01:05;101753.66;;;15.26;100.00
47983;BME280;33751;50.816;-1.214;2022-07-29T04:03:32;101755.60;;;15.39;100.00
47983;BME280;33751;50.816;-1.214;2022-07-29T04:06:02;101757.38;;;15.34;100.00
47983;BME280;33751;50.816;-1.214;2022-07-29T04:08:29;101753.70;;;15.01;100.00
47983;BME280;33751;50.816;-1.214;2022-07-29T04:10:56;101751.60;;;14.95;100.00
47983;BME280;33751;50.816;-1.214;2022-07-29T04:13:23;101754.17;;;15.07;100.00
47983;BME280;33751;50.816;-1.214;2022-07-29T04:15:50;101753.80;;;14.95;100.00
47983;BME280;33751;50.816;-1.214;2022-07-29T04:18:17;101754.49;;;15.25;100.00
47983;BME280;33751;50.816;-1.214;2022-07-29T04:20:44;101759.10;;;15.13;100.00
47983;BME280;33751;50.816;-1.214;2022-07-29T04:23:11;101762.92;;;14.94;100.00
47983;BME280;33751;50.816;-1.214;2022-07-29T04:25:39;101764.56;;;15.15;100.00
47983;BME280;33751;50.816;-1.214;2022-07-29T04:28:06;101764.45;;;15.17;100.00
47983;BME280;33751;50.816;-1.214;2022-07-29T04:30:35;101762.80;;;15.09;100.00
47983;BME280;33751;50.816;-1.214;2022-07-29T04:33:04;101763.12;;;15.17;100.00
47983;BME280;33751;50.816;-1.214;2022-07-29T04:35:34;101760.35;;;15.11;100.00
47983;BME280;33751;50.816;-1.214;2022-07-29T04:38:02;101756.19;;;15.14;100.00
47983;BME280;33751;50.816;-1.214;2022-07-29T04:40:28;101759.99;;;14.97;100.00
47983;BME280;33751;50.816;-1.214;2022-07-29T04:42:55;101758.23;;;15.05;100.00
47983;BME280;33751;50.816;-1.214;2022-07-29T04:45:23;101756.89;;;15.11;100.00
47983;BME280;33751;50.816;-1.214;2022-07-29T04:47:50;101762.94;;;15.11;100.00
47983;BME280;33751;50.816;-1.214;2022-07-29T04:50:17;101761.54;;;15.13;100.00
47983;BME280;33751;50.816;-1.214;2022-07-29T04:52:43;101757.39;;;14.97;100.00
47983;BME280;33751;50.816;-1.214;2022-07-29T04:55:11;101754.43;;;15.10;100.00
47983;BME280;33751;50.816;-1.214;2022-07-29T04:57:38;101757.19;;;15.18;100.00
47983;BME280;33751;50.816;-1.214;2022-07-29T05:00:06;101762.77;;;15.07;100.00
47983;BME280;33751;50.816;-1.214;2022-07-29T05:02:33;101762.75;;;15.21;100.00
47983;BME280;33751;50.816;-1.214;2022-07-29T05:05:00;101760.54;;;14.87;100.00
47983;BME280;33751;50.816;-1.214;2022-07-29T05:07:27;101759.80;;;15.26;100.00
47983;BME280;33751;50.816;-1.214;2022-07-29T05:09:54;101761.02;;;15.10;100.00
47983;BME280;33751;50.816;-1.214;2022-07-29T05:12:21;101763.69;;;15.33;100.00
47983;BME280;33751;50.816;-1.214;2022-07-29T05:14:48;101766.17;;;15.40;100.00
47983;BME280;33751;50.816;-1.214;2022-07-29T05:17:14;101769.40;;;15.48;100.00
47983;BME280;33751;50.816;-1.214;2022-07-29T05:19:41;101768.71;;;15.41;100.00
47983;BME280;33751;50.816;-1.214;2022-07-29T05:22:08;101768.37;;;15.13;100.00
47983;BME280;33751;50.816;-1.214;2022-07-29T05:24:35;101771.31;;;15.37;100.00
47983;BME280;33751;50.816;-1.214;2022-07-29T05:27:02;101773.38;;;15.35;100.00
47983;BME280;33751;50.816;-1.214;2022-07-29T05:29:29;101775.61;;;15.44;100.00
47983;BME280;33751;50.816;-1.214;2022-07-29T05:31:55;101774.10;;;15.47;100.00
47983;BME280;33751;50.816;-1.214;2022-07-29T05:34:22;101772.58;;;15.40;100.00
47983;BME280;33751;50.816;-1.214;2022-07-29T05:36:49;101771.65;;;15.40;100.00
47983;BME280;33751;50.816;-1.214;2022-07-29T05:39:16;101774.09;;;15.71;100.00
47983;BME280;33751;50.816;-1.214;2022-07-29T05:41:43;101769.29;;;15.62;100.00
47983;BME280;33751;50.816;-1.214;2022-07-29T05:44:10;101778.81;;;15.62;100.00
47983;BME280;33751;50.816;-1.214;2022-07-29T05:46:37;101779.67;;;15.80;100.00
47983;BME280;33751;50.816;-1.214;2022-07-29T05:49:04;101782.28;;;15.59;100.00
47983;BME280;33751;50.816;-1.214;2022-07-29T05:51:32;101789.57;;;15.95;100.00
47983;BME280;33751;50.816;-1.214;2022-07-29T05:53:59;101791.17;;;15.93;100.00
47983;BME280;33751;50.816;-1.214;2022-07-29T05:56:26;101794.08;;;15.93;100.00
47983;BME280;33751;50.816;-1.214;2022-07-29T05:58:53;101793.17;;;15.89;100.00
47983;BME280;33751;50.816;-1.214;2022-07-29T06:01:20;101794.65;;;15.96;100.00
47983;BME280;33751;50.816;-1.214;2022-07-29T06:03:47;101801.93;;;16.11;100.00
47983;BME280;33751;50.816;-1.214;2022-07-29T06:06:14;101804.61;;;15.76;100.00
47983;BME280;33751;50.816;-1.214;2022-07-29T06:08:41;101805.05;;;16.09;100.00
47983;BME280;33751;50.816;-1.214;2022-07-29T06:11:08;101799.67;;;16.06;100.00
47983;BME280;33751;50.816;-1.214;2022-07-29T06:13:35;101795.71;;;16.27;100.00
47983;BME280;33751;50.816;-1.214;2022-07-29T06:16:02;101790.40;;;16.05;100.00
47983;BME280;33751;50.816;-1.214;2022-07-29T06:18:29;101789.11;;;16.29;100.00
47983;BME280;33751;50.816;-1.214;2022-07-29T06:20:57;101787.15;;;16.22;100.00
47983;BME280;33751;50.816;-1.214;2022-07-29T06:23:23;101790.10;;;16.03;100.00
47983;BME280;33751;50.816;-1.214;2022-07-29T06:25:50;101794.31;;;16.76;100.00
47983;BME280;33751;50.816;-1.214;2022-07-29T06:28:17;101795.57;;;16.76;100.00
47983;BME280;33751;50.816;-1.214;2022-07-29T06:30:44;101795.41;;;16.80;100.00
47983;BME280;33751;50.816;-1.214;2022-07-29T06:33:16;101797.82;;;16.78;100.00
47983;BME280;33751;50.816;-1.214;2022-07-29T06:35:43;101794.98;;;17.09;100.00
47983;BME280;33751;50.816;-1.214;2022-07-29T06:38:10;101795.27;;;16.50;100.00
47983;BME280;33751;50.816;-1.214;2022-07-29T06:40:41;101796.02;;;17.07;100.00
47983;BME280;33751;50.816;-1.214;2022-07-29T06:43:08;101800.32;;;17.29;100.00
47983;BME280;33751;50.816;-1.214;2022-07-29T06:45:35;101799.94;;;16.93;100.00
47983;BME280;33751;50.816;-1.214;2022-07-29T06:48:02;101802.82;;;16.80;100.00
47983;BME280;33751;50.816;-1.214;2022-07-29T06:50:30;101802.39;;;17.31;100.00
47983;BME280;33751;50.816;-1.214;2022-07-29T06:52:57;101803.38;;;17.51;100.00
47983;BME280;33751;50.816;-1.214;2022-07-29T06:55:24;101802.98;;;17.49;100.00
47983;BME280;33751;50.816;-1.214;2022-07-29T06:57:51;101803.07;;;17.05;100.00
47983;BME280;33751;50.816;-1.214;2022-07-29T07:00:18;101802.52;;;17.42;100.00
47983;BME280;33751;50.816;-1.214;2022-07-29T07:02:45;101803.31;;;17.47;100.00
47983;BME280;33751;50.816;-1.214;2022-07-29T07:05:12;101806.23;;;17.60;100.00
47983;BME280;33751;50.816;-1.214;2022-07-29T07:07:39;101809.58;;;17.40;100.00
47983;BME280;33751;50.816;-1.214;2022-07-29T07:10:07;101810.43;;;17.62;100.00
47983;BME280;33751;50.816;-1.214;2022-07-29T07:12:34;101810.67;;;17.63;100.00
47983;BME280;33751;50.816;-1.214;2022-07-29T07:15:01;101807.55;;;18.17;100.00
47983;BME280;33751;50.816;-1.214;2022-07-29T07:17:28;101813.40;;;18.89;100.00
47983;BME280;33751;50.816;-1.214;2022-07-29T07:19:55;101815.53;;;18.61;100.00
47983;BME280;33751;50.816;-1.214;2022-07-29T07:22:22;101812.59;;;18.73;100.00
47983;BME280;33751;50.816;-1.214;2022-07-29T07:24:49;101815.08;;;19.30;100.00
47983;BME280;33751;50.816;-1.214;2022-07-29T07:27:15;101820.03;;;19.21;100.00
47983;BME280;33751;50.816;-1.214;2022-07-29T07:29:42;101817.47;;;19.92;100.00
47983;BME280;33751;50.816;-1.214;2022-07-29T07:32:10;101822.62;;;19.33;100.00
47983;BME280;33751;50.816;-1.214;2022-07-29T07:34:36;101821.25;;;19.42;100.00
47983;BME280;33751;50.816;-1.214;2022-07-29T07:37:03;101827.05;;;20.06;100.00
47983;BME280;33751;50.816;-1.214;2022-07-29T07:39:30;101830.08;;;19.91;100.00
47983;BME280;33751;50.816;-1.214;2022-07-29T07:41:57;101831.28;;;20.50;100.00
47983;BME280;33751;50.816;-1.214;2022-07-29T07:44:24;101836.09;;;20.64;100.00
47983;BME280;33751;50.816;-1.214;2022-07-29T07:46:51;101842.87;;;20.32;100.00
47983;BME280;33751;50.816;-1.214;2022-07-29T07:49:17;101844.16;;;20.66;98.61
47983;BME280;33751;50.816;-1.214;2022-07-29T07:51:44;101845.47;;;20.82;97.03
47983;BME280;33751;50.816;-1.214;2022-07-29T07:54:12;101844.13;;;20.91;88.91
47983;BME280;33751;50.816;-1.214;2022-07-29T07:56:38;101844.21;;;21.14;88.43
47983;BME280;33751;50.816;-1.214;2022-07-29T07:59:05;101844.62;;;21.02;87.61
47983;BME280;33751;50.816;-1.214;2022-07-29T08:01:32;101841.15;;;21.34;81.65
47983;BME280;33751;50.816;-1.214;2022-07-29T08:03:59;101837.49;;;20.99;80.45
47983;BME280;33751;50.816;-1.214;2022-07-29T08:06:26;101835.11;;;21.49;76.41
47983;BME280;33751;50.816;-1.214;2022-07-29T08:08:53;101832.96;;;21.73;78.36
47983;BME280;33751;50.816;-1.214;2022-07-29T08:11:20;101830.85;;;21.88;78.02
47983;BME280;33751;50.816;-1.214;2022-07-29T08:13:47;101829.90;;;21.68;75.78
47983;BME280;33751;50.816;-1.214;2022-07-29T08:16:14;101833.84;;;22.37;68.33
47983;BME280;33751;50.816;-1.214;2022-07-29T08:18:42;101837.60;;;21.95;70.99
47983;BME280;33751;50.816;-1.214;2022-07-29T08:21:09;101833.78;;;22.41;68.87
47983;BME280;33751;50.816;-1.214;2022-07-29T08:23:36;101831.32;;;22.59;65.17
47983;BME280;33751;50.816;-1.214;2022-07-29T08:26:04;101833.16;;;23.15;59.32
47983;BME280;33751;50.816;-1.214;2022-07-29T08:28:31;101828.89;;;23.02;54.70
47983;BME280;33751;50.816;-1.214;2022-07-29T08:30:58;101830.80;;;22.86;54.39
47983;BME280;33751;50.816;-1.214;2022-07-29T08:33:25;101828.41;;;22.60;56.40
47983;BME280;33751;50.816;-1.214;2022-07-29T08:35:52;101832.23;;;22.30;56.38
47983;BME280;33751;50.816;-1.214;2022-07-29T08:38:19;101826.95;;;22.11;54.16
47983;BME280;33751;50.816;-1.214;2022-07-29T08:40:46;101823.47;;;21.88;55.17
47983;BME280;33751;50.816;-1.214;2022-07-29T08:43:13;101822.46;;;21.75;56.10
47983;BME280;33751;50.816;-1.214;2022-07-29T08:45:43;101825.72;;;22.02;56.96
47983;BME280;33751;50.816;-1.214;2022-07-29T08:48:11;101827.46;;;22.12;56.10
47983;BME280;33751;50.816;-1.214;2022-07-29T08:50:38;101827.91;;;21.81;56.86
47983;BME280;33751;50.816;-1.214;2022-07-29T08:53:08;101828.34;;;22.13;55.20
47983;BME280;33751;50.816;-1.214;2022-07-29T08:55:39;101827.95;;;22.28;52.54
47983;BME280;33751;50.816;-1.214;2022-07-29T08:58:07;101823.62;;;22.08;53.08
47983;BME280;33751;50.816;-1.214;2022-07-29T09:00:35;101825.87;;;22.22;52.68
47983;BME280;33751;50.816;-1.214;2022-07-29T09:03:04;101827.42;;;22.39;53.30
47983;BME280;33751;50.816;-1.214;2022-07-29T09:05:32;101827.28;;;22.64;50.55
47983;BME280;33751;50.816;-1.214;2022-07-29T09:08:00;101830.21;;;22.94;47.66
47983;BME280;33751;50.816;-1.214;2022-07-29T09:10:27;101834.11;;;23.33;46.22
47983;BME280;33751;50.816;-1.214;2022-07-29T09:12:54;101830.33;;;23.21;48.09
47983;BME280;33751;50.816;-1.214;2022-07-29T09:15:21;101833.12;;;23.65;46.66
47983;BME280;33751;50.816;-1.214;2022-07-29T09:17:49;101832.79;;;23.72;43.64
47983;BME280;33751;50.816;-1.214;2022-07-29T09:20:18;101837.45;;;23.48;43.15
47983;BME280;33751;50.816;-1.214;2022-07-29T09:22:46;101837.14;;;23.61;42.32
47983;BME280;33751;50.816;-1.214;2022-07-29T09:25:13;101840.61;;;23.97;41.58
47983;BME280;33751;50.816;-1.214;2022-07-29T09:27:40;101842.78;;;23.59;41.08
47983;BME280;33751;50.816;-1.214;2022-07-29T09:30:09;101843.58;;;24.32;41.72
47983;BME280;33751;50.816;-1.214;2022-07-29T09:32:54;101844.19;;;24.03;67.11
47983;BME280;33751;50.816;-1.214;2022-07-29T09:35:24;101838.91;;;23.72;70.22
47983;BME280;33751;50.816;-1.214;2022-07-29T09:37:51;101833.43;;;23.59;69.68
47983;BME280;33751;50.816;-1.214;2022-07-29T09:40:21;101831.04;;;23.64;70.25
47983;BME280;33751;50.816;-1.214;2022-07-29T09:42:49;101830.24;;;23.84;72.16
47983;BME280;33751;50.816;-1.214;2022-07-29T09:45:27;101829.44;;;23.65;68.17
47983;BME280;33751;50.816;-1.214;2022-07-29T09:47:54;101831.74;;;23.91;72.57
47983;BME280;33751;50.816;-1.214;2022-07-29T09:50:21;101838.94;;;23.26;72.34
47983;BME280;33751;50.816;-1.214;2022-07-29T09:52:48;101838.63;;;23.24;74.70
47983;BME280;33751;50.816;-1.214;2022-07-29T09:55:17;101839.81;;;23.84;76.56
47983;BME280;33751;50.816;-1.214;2022-07-29T09:57:45;101835.18;;;23.73;68.99
47983;BME280;33751;50.816;-1.214;2022-07-29T10:00:13;101830.48;;;23.81;70.94
47983;BME280;33751;50.816;-1.214;2022-07-29T10:02:43;101828.70;;;23.57;74.86
47983;BME280;33751;50.816;-1.214;2022-07-29T10:05:20;101827.58;;;23.98;68.73
47983;BME280;33751;50.816;-1.214;2022-07-29T10:07:49;101828.23;;;24.21;66.17
47983;BME280;33751;50.816;-1.214;2022-07-29T10:10:22;101830.91;;;24.09;66.42
47983;BME280;33751;50.816;-1.214;2022-07-29T10:12:51;101831.12;;;24.38;65.99
47983;BME280;33751;50.816;-1.214;2022-07-29T10:15:19;101834.75;;;23.98;66.32
47983;BME280;33751;50.816;-1.214;2022-07-29T10:17:47;101837.92;;;23.76;64.43
47983;BME280;33751;50.816;-1.214;2022-07-29T10:20:15;101841.34;;;23.87;69.18
47983;BME280;33751;50.816;-1.214;2022-07-29T10:22:43;101838.39;;;24.16;65.76
47983;BME280;33751;50.816;-1.214;2022-07-29T10:25:10;101835.91;;;24.28;63.97
47983;BME280;33751;50.816;-1.214;2022-07-29T10:27:37;101832.78;;;24.59;61.00
47983;BME280;33751;50.816;-1.214;2022-07-29T10:30:06;101835.65;;;24.59;55.63
47983;BME280;33751;50.816;-1.214;2022-07-29T10:32:45;101835.11;;;24.26;54.57
47983;BME280;33751;50.816;-1.214;2022-07-29T10:35:27;101831.34;;;24.66;50.47
47983;BME280;33751;50.816;-1.214;2022-07-29T10:38:27;101832.88;;;24.66;49.89
47983;BME280;33751;50.816;-1.214;2022-07-29T10:41:04;101830.31;;;24.82;45.26
47983;BME280;33751;50.816;-1.214;2022-07-29T10:43:37;101832.91;;;24.81;44.91
47983;BME280;33751;50.816;-1.214;2022-07-29T10:46:07;101835.01;;;24.66;45.70
47983;BME280;33751;50.816;-1.214;2022-07-29T10:48:35;101831.79;;;24.92;45.63
47983;BME280;33751;50.816;-1.214;2022-07-29T10:51:03;101830.36;;;24.89;46.18
47983;BME280;33751;50.816;-1.214;2022-07-29T10:53:47;101828.14;;;25.36;43.74
47983;BME280;33751;50.816;-1.214;2022-07-29T10:56:31;101827.63;;;24.99;45.03
47983;BME280;33751;50.816;-1.214;2022-07-29T10:59:23;101828.02;;;24.79;44.93
47983;BME280;33751;50.816;-1.214;2022-07-29T11:01:51;101823.50;;;25.35;45.20
47983;BME280;33751;50.816;-1.214;2022-07-29T11:04:59;101823.89;;;25.41;46.81
47983;BME280;33751;50.816;-1.214;2022-07-29T11:07:26;101822.16;;;25.36;43.18
47983;BME280;33751;50.816;-1.214;2022-07-29T11:10:26;101817.96;;;25.29;40.83
47983;BME280;33751;50.816;-1.214;2022-07-29T11:12:53;101825.18;;;25.04;41.04
47983;BME280;33751;50.816;-1.214;2022-07-29T11:15:21;101831.36;;;24.94;41.27
47983;BME280;33751;50.816;-1.214;2022-07-29T11:18:21;101837.59;;;25.09;42.20
47983;BME280;33751;50.816;-1.214;2022-07-29T11:20:49;101839.60;;;25.46;45.44
47983;BME280;33751;50.816;-1.214;2022-07-29T11:23:20;101838.57;;;25.17;42.81
47983;BME280;33751;50.816;-1.214;2022-07-29T11:26:13;101840.87;;;25.38;43.11
47983;BME280;33751;50.816;-1.214;2022-07-29T11:28:50;101838.69;;;25.27;44.07
47983;BME280;33751;50.816;-1.214;2022-07-29T11:31:31;101839.63;;;25.64;43.03
47983;BME280;33751;50.816;-1.214;2022-07-29T11:34:16;101837.38;;;25.73;41.09
47983;BME280;33751;50.816;-1.214;2022-07-29T11:37:16;101837.98;;;24.89;42.02
47983;BME280;33751;50.816;-1.214;2022-07-29T11:39:44;101844.50;;;24.84;41.89
47983;BME280;33751;50.816;-1.214;2022-07-29T11:42:45;101846.77;;;25.63;42.82
47983;BME280;33751;50.816;-1.214;2022-07-29T11:45:14;101841.44;;;24.77;43.15
47983;BME280;33751;50.816;-1.214;2022-07-29T11:47:47;101839.92;;;25.50;42.46
47983;BME280;33751;50.816;-1.214;2022-07-29T11:50:16;101844.66;;;25.34;40.16
47983;BME280;33751;50.816;-1.214;2022-07-29T11:52:46;101840.82;;;25.54;40.57
47983;BME280;33751;50.816;-1.214;2022-07-29T11:55:14;101841.43;;;25.51;41.81
47983;BME280;33751;50.816;-1.214;2022-07-29T11:57:46;101840.77;;;26.01;43.13
47983;BME280;33751;50.816;-1.214;2022-07-29T12:00:22;101831.99;;;26.52;40.60
47983;BME280;33751;50.816;-1.214;2022-07-29T12:02:50;101835.71;;;26.19;40.35
47983;BME280;33751;50.816;-1.214;2022-07-29T12:05:18;101840.35;;;25.75;42.05
47983;BME280;33751;50.816;-1.214;2022-07-29T12:07:45;101843.15;;;26.14;41.70
47983;BME280;33751;50.816;-1.214;2022-07-29T12:10:13;101837.48;;;26.38;40.74
47983;BME280;33751;50.816;-1.214;2022-07-29T12:12:41;101838.04;;;26.20;39.66
47983;BME280;33751;50.816;-1.214;2022-07-29T12:15:13;101829.30;;;26.34;40.56
47983;BME280;33751;50.816;-1.214;2022-07-29T12:17:40;101827.24;;;26.47;40.47
47983;BME280;33751;50.816;-1.214;2022-07-29T12:20:08;101820.79;;;27.02;37.93
47983;BME280;33751;50.816;-1.214;2022-07-29T12:22:37;101819.49;;;26.94;37.80
47983;BME280;33751;50.816;-1.214;2022-07-29T12:25:07;101820.86;;;26.60;36.81
47983;BME280;33751;50.816;-1.214;2022-07-29T12:27:35;101821.91;;;27.04;36.34
47983;BME280;33751;50.816;-1.214;2022-07-29T12:30:05;101815.56;;;26.83;35.64
47983;BME280;33751;50.816;-1.214;2022-07-29T12:32:34;101814.26;;;27.15;33.61
47983;BME280;33751;50.816;-1.214;2022-07-29T12:35:04;101811.06;;;26.95;34.12
47983;BME280;33751;50.816;-1.214;2022-07-29T12:37:33;101806.03;;;26.71;33.49
47983;BME280;33751;50.816;-1.214;2022-07-29T12:40:01;101804.21;;;27.18;34.61
47983;BME280;33751;50.816;-1.214;2022-07-29T12:42:29;101796.76;;;27.67;31.98
47983;BME280;33751;50.816;-1.214;2022-07-29T12:44:56;101803.28;;;27.20;30.99